Flugplatz Dorsten am Kanal (UL)

Hier findest Du alle Informationen zum Flugplatz Dorsten am Kanal (UL).

Informationen für Piloten zum Flugplatz Dorsten am Kanal

Hier findest Du alle relevanten Informationen, die Du als Pilot benötigst, um Dorsten am Kanal anzufliegen.

Flugplatz: Dorsten am Kanal ICAO-Code: UL Flugplatz
Frequenz Turm: 123.350 Mhz GAFOR Gebiet: 33
Frequenz Ground: 123.350 Mhz Mogas: nein
Platzrunde: S 1000 ft Landegebühr: -
Platzhöhe: Sunrise: 07:24 Uhr UTC
Pisten: 09/27 - 600 m x 30 m, GRAS Sunset: 15:24 Uhr UTC

Mitglieder, die in Dorsten am Kanal fliegen

Flugwetter am Flugplatz Dorsten am Kanal

Die METAR Information stammen aus EDDL (45.12 km entfernt).

METAR Code:
2022/12/06 22:20
EDDL 062220Z AUTO 25005KT 9999 -SHRA BKN009 BKN031 BKN039 FEW///CB 05/04 Q1017 TEMPO BKN010

Flugschulen am Flugplatz Dorsten am Kanal

Am Flugplatz Dorsten am Kanal gibt es leider keine Flugschule.

Benachbarte Flugplätze und Flugschulen

Es gibt 16 weitere Flugplätze in einem Umkreis von 50 km um den Flugplatz Dorsten am Kanal.

Jetzt anmelden

Passwort vergessen

Umfrage Archiv

Sendet Ihr ADS-B und/oder FLARM?

Ja
84.6 %
Nein
15.4 %
Stimmen: 254 | Diskussion
Anzeige: Roland Aircraft
Statistik Alle Mitglieder

Aktuell sind 62 Besucher online, davon 1 Mitglied und 61 Gäste.


Mitglieder online:
HansOtto 

Anzeige: ULPower Aero Engines Anzeige: EasyVFR